sensor_id;sensor_type;location;lat;lon;timestamp;temperature;humidity
20481;DHT22;10399;50.754;3.366;2023-05-27T00:01:22;15.40;99.90
20481;DHT22;10399;50.754;3.366;2023-05-27T00:03:49;15.30;99.90
20481;DHT22;10399;50.754;3.366;2023-05-27T00:06:16;15.50;99.90
20481;DHT22;10399;50.754;3.366;2023-05-27T00:08:43;15.30;99.90
20481;DHT22;10399;50.754;3.366;2023-05-27T00:11:10;15.30;99.90
20481;DHT22;10399;50.754;3.366;2023-05-27T00:13:37;15.20;99.90
20481;DHT22;10399;50.754;3.366;2023-05-27T00:16:05;15.10;99.90
20481;DHT22;10399;50.754;3.366;2023-05-27T00:18:32;15.20;99.90
20481;DHT22;10399;50.754;3.366;2023-05-27T00:20:59;15.10;99.90
20481;DHT22;10399;50.754;3.366;2023-05-27T00:23:26;15.10;99.90
20481;DHT22;10399;50.754;3.366;2023-05-27T00:25:53;15.10;99.90
20481;DHT22;10399;50.754;3.366;2023-05-27T00:28:21;15.00;99.90
20481;DHT22;10399;50.754;3.366;2023-05-27T00:30:48;14.90;99.90
20481;DHT22;10399;50.754;3.366;2023-05-27T00:33:14;14.80;99.90
20481;DHT22;10399;50.754;3.366;2023-05-27T00:35:42;14.90;99.90
20481;DHT22;10399;50.754;3.366;2023-05-27T00:38:09;14.70;99.90
20481;DHT22;10399;50.754;3.366;2023-05-27T00:40:36;14.60;99.90
20481;DHT22;10399;50.754;3.366;2023-05-27T00:43:05;14.60;99.90
20481;DHT22;10399;50.754;3.366;2023-05-27T00:45:33;14.60;99.90
20481;DHT22;10399;50.754;3.366;2023-05-27T00:48:02;14.70;99.90
20481;DHT22;10399;50.754;3.366;2023-05-27T00:50:30;14.90;99.90
20481;DHT22;10399;50.754;3.366;2023-05-27T00:52:58;14.90;99.90
20481;DHT22;10399;50.754;3.366;2023-05-27T00:55:26;14.80;99.90
20481;DHT22;10399;50.754;3.366;2023-05-27T00:57:53;14.90;99.90
20481;DHT22;10399;50.754;3.366;2023-05-27T01:00:22;14.80;99.90
20481;DHT22;10399;50.754;3.366;2023-05-27T01:03:14;14.80;99.90
20481;DHT22;10399;50.754;3.366;2023-05-27T01:05:42;14.80;99.90
20481;DHT22;10399;50.754;3.366;2023-05-27T01:08:17;14.80;99.90
20481;DHT22;10399;50.754;3.366;2023-05-27T01:10:51;14.80;99.90
20481;DHT22;10399;50.754;3.366;2023-05-27T01:16:09;14.70;99.90
20481;DHT22;10399;50.754;3.366;2023-05-27T01:18:37;14.80;99.90
20481;DHT22;10399;50.754;3.366;2023-05-27T01:21:10;14.80;99.90
20481;DHT22;10399;50.754;3.366;2023-05-27T01:23:41;14.80;99.90
20481;DHT22;10399;50.754;3.366;2023-05-27T01:26:08;14.80;99.90
20481;DHT22;10399;50.754;3.366;2023-05-27T01:28:35;14.70;99.90
20481;DHT22;10399;50.754;3.366;2023-05-27T01:31:12;14.50;99.90
20481;DHT22;10399;50.754;3.366;2023-05-27T01:33:44;14.50;99.90
20481;DHT22;10399;50.754;3.366;2023-05-27T01:36:18;14.50;99.90
20481;DHT22;10399;50.754;3.366;2023-05-27T01:38:47;14.40;99.90
20481;DHT22;10399;50.754;3.366;2023-05-27T01:41:16;14.40;99.90
20481;DHT22;10399;50.754;3.366;2023-05-27T01:43:44;14.60;99.90
20481;DHT22;10399;50.754;3.366;2023-05-27T01:46:11;14.60;99.90
20481;DHT22;10399;50.754;3.366;2023-05-27T01:48:39;14.60;99.90
20481;DHT22;10399;50.754;3.366;2023-05-27T01:51:07;14.50;99.90
20481;DHT22;10399;50.754;3.366;2023-05-27T01:53:35;14.50;99.90
20481;DHT22;10399;50.754;3.366;2023-05-27T01:56:02;14.40;99.90
20481;DHT22;10399;50.754;3.366;2023-05-27T01:58:29;14.50;99.90
20481;DHT22;10399;50.754;3.366;2023-05-27T02:00:56;14.40;99.90
20481;DHT22;10399;50.754;3.366;2023-05-27T02:03:23;14.40;99.90
20481;DHT22;10399;50.754;3.366;2023-05-27T02:05:50;14.30;99.90
20481;DHT22;10399;50.754;3.366;2023-05-27T02:08:18;14.20;99.90
20481;DHT22;10399;50.754;3.366;2023-05-27T02:10:45;14.30;99.90
20481;DHT22;10399;50.754;3.366;2023-05-27T02:13:12;14.20;99.90
20481;DHT22;10399;50.754;3.366;2023-05-27T02:15:39;14.00;99.90
20481;DHT22;10399;50.754;3.366;2023-05-27T02:18:09;14.20;99.90
20481;DHT22;10399;50.754;3.366;2023-05-27T02:20:36;14.20;99.90
20481;DHT22;10399;50.754;3.366;2023-05-27T02:23:05;14.20;99.90
20481;DHT22;10399;50.754;3.366;2023-05-27T02:25:33;14.10;99.90
20481;DHT22;10399;50.754;3.366;2023-05-27T02:28:00;14.00;99.90
20481;DHT22;10399;50.754;3.366;2023-05-27T02:30:30;14.20;99.90
20481;DHT22;10399;50.754;3.366;2023-05-27T02:32:58;14.00;99.90
20481;DHT22;10399;50.754;3.366;2023-05-27T02:35:25;14.10;99.90
20481;DHT22;10399;50.754;3.366;2023-05-27T02:37:52;14.00;99.90
20481;DHT22;10399;50.754;3.366;2023-05-27T02:40:26;13.90;99.90
20481;DHT22;10399;50.754;3.366;2023-05-27T02:42:53;13.80;99.90
20481;DHT22;10399;50.754;3.366;2023-05-27T02:45:20;13.80;99.90
20481;DHT22;10399;50.754;3.366;2023-05-27T02:47:48;13.70;99.90
20481;DHT22;10399;50.754;3.366;2023-05-27T02:50:15;13.60;99.90
20481;DHT22;10399;50.754;3.366;2023-05-27T02:52:42;13.60;99.90
20481;DHT22;10399;50.754;3.366;2023-05-27T02:55:10;13.60;99.90
20481;DHT22;10399;50.754;3.366;2023-05-27T02:57:37;13.60;99.90
20481;DHT22;10399;50.754;3.366;2023-05-27T03:00:08;13.70;99.90
20481;DHT22;10399;50.754;3.366;2023-05-27T03:02:36;13.70;99.90
20481;DHT22;10399;50.754;3.366;2023-05-27T03:05:04;13.80;99.90
20481;DHT22;10399;50.754;3.366;2023-05-27T03:07:31;13.70;99.90
20481;DHT22;10399;50.754;3.366;2023-05-27T03:09:58;13.70;99.90
20481;DHT22;10399;50.754;3.366;2023-05-27T03:12:25;13.80;99.90
20481;DHT22;10399;50.754;3.366;2023-05-27T03:14:52;13.70;99.90
20481;DHT22;10399;50.754;3.366;2023-05-27T03:17:19;13.50;99.90
20481;DHT22;10399;50.754;3.366;2023-05-27T03:19:48;13.50;99.90
20481;DHT22;10399;50.754;3.366;2023-05-27T03:22:15;13.40;99.90
20481;DHT22;10399;50.754;3.366;2023-05-27T03:24:42;13.20;99.90
20481;DHT22;10399;50.754;3.366;2023-05-27T03:27:10;13.40;99.90
20481;DHT22;10399;50.754;3.366;2023-05-27T03:29:40;13.30;99.90
20481;DHT22;10399;50.754;3.366;2023-05-27T03:32:26;13.40;99.90
20481;DHT22;10399;50.754;3.366;2023-05-27T03:34:56;13.40;99.90
20481;DHT22;10399;50.754;3.366;2023-05-27T03:37:23;13.20;99.90
20481;DHT22;10399;50.754;3.366;2023-05-27T03:39:50;13.20;99.90
20481;DHT22;10399;50.754;3.366;2023-05-27T03:42:18;13.20;99.90
20481;DHT22;10399;50.754;3.366;2023-05-27T03:44:48;13.00;99.90
20481;DHT22;10399;50.754;3.366;2023-05-27T03:47:15;13.20;99.90
20481;DHT22;10399;50.754;3.366;2023-05-27T03:49:44;13.10;99.90
20481;DHT22;10399;50.754;3.366;2023-05-27T03:52:11;13.10;99.90
20481;DHT22;10399;50.754;3.366;2023-05-27T03:54:38;13.10;99.90
20481;DHT22;10399;50.754;3.366;2023-05-27T03:57:06;13.10;99.90
20481;DHT22;10399;50.754;3.366;2023-05-27T03:59:34;13.10;99.90
20481;DHT22;10399;50.754;3.366;2023-05-27T04:02:01;13.10;99.90
20481;DHT22;10399;50.754;3.366;2023-05-27T04:04:28;13.10;99.90
20481;DHT22;10399;50.754;3.366;2023-05-27T04:06:56;13.00;99.90
20481;DHT22;10399;50.754;3.366;2023-05-27T04:09:23;13.10;99.90
20481;DHT22;10399;50.754;3.366;2023-05-27T04:11:50;13.20;99.90
20481;DHT22;10399;50.754;3.366;2023-05-27T04:14:17;13.20;99.90
20481;DHT22;10399;50.754;3.366;2023-05-27T04:16:44;13.20;99.90
20481;DHT22;10399;50.754;3.366;2023-05-27T04:19:11;13.00;99.90
20481;DHT22;10399;50.754;3.366;2023-05-27T04:21:40;13.00;99.90
20481;DHT22;10399;50.754;3.366;2023-05-27T04:24:08;13.20;99.90
20481;DHT22;10399;50.754;3.366;2023-05-27T04:26:36;13.20;99.90
20481;DHT22;10399;50.754;3.366;2023-05-27T04:29:03;13.20;99.90
20481;DHT22;10399;50.754;3.366;2023-05-27T04:31:31;13.20;99.90
20481;DHT22;10399;50.754;3.366;2023-05-27T04:33:58;13.20;99.90
20481;DHT22;10399;50.754;3.366;2023-05-27T04:36:25;13.20;99.90
20481;DHT22;10399;50.754;3.366;2023-05-27T04:39:00;13.30;99.90
20481;DHT22;10399;50.754;3.366;2023-05-27T04:41:28;13.30;99.90
20481;DHT22;10399;50.754;3.366;2023-05-27T04:43:55;13.40;99.90
20481;DHT22;10399;50.754;3.366;2023-05-27T04:46:24;13.30;99.90
20481;DHT22;10399;50.754;3.366;2023-05-27T04:48:54;13.40;99.90
20481;DHT22;10399;50.754;3.366;2023-05-27T04:51:21;13.40;99.90
20481;DHT22;10399;50.754;3.366;2023-05-27T04:53:49;13.40;99.90
20481;DHT22;10399;50.754;3.366;2023-05-27T04:56:17;13.40;99.90
20481;DHT22;10399;50.754;3.366;2023-05-27T04:58:44;13.40;99.90
20481;DHT22;10399;50.754;3.366;2023-05-27T05:01:15;13.60;99.90
20481;DHT22;10399;50.754;3.366;2023-05-27T05:03:47;13.50;99.90
20481;DHT22;10399;50.754;3.366;2023-05-27T05:06:40;13.40;99.90
20481;DHT22;10399;50.754;3.366;2023-05-27T05:09:07;13.40;99.90
20481;DHT22;10399;50.754;3.366;2023-05-27T05:11:35;13.20;99.90
20481;DHT22;10399;50.754;3.366;2023-05-27T05:14:03;13.30;99.90
20481;DHT22;10399;50.754;3.366;2023-05-27T05:16:30;13.30;99.90
20481;DHT22;10399;50.754;3.366;2023-05-27T05:18:57;13.40;99.90
20481;DHT22;10399;50.754;3.366;2023-05-27T05:21:24;13.60;99.90
20481;DHT22;10399;50.754;3.366;2023-05-27T05:23:51;13.70;99.90
20481;DHT22;10399;50.754;3.366;2023-05-27T05:26:18;13.60;99.90
20481;DHT22;10399;50.754;3.366;2023-05-27T05:28:45;13.50;99.90
20481;DHT22;10399;50.754;3.366;2023-05-27T05:31:12;13.60;99.90
20481;DHT22;10399;50.754;3.366;2023-05-27T05:33:40;13.50;99.90
20481;DHT22;10399;50.754;3.366;2023-05-27T05:36:07;13.70;99.90
20481;DHT22;10399;50.754;3.366;2023-05-27T05:38:35;13.70;99.90
20481;DHT22;10399;50.754;3.366;2023-05-27T05:41:03;13.80;99.90
20481;DHT22;10399;50.754;3.366;2023-05-27T05:43:35;13.90;99.90
20481;DHT22;10399;50.754;3.366;2023-05-27T05:46:02;13.80;99.90
20481;DHT22;10399;50.754;3.366;2023-05-27T05:48:30;13.80;99.90
20481;DHT22;10399;50.754;3.366;2023-05-27T05:51:01;13.90;99.90
20481;DHT22;10399;50.754;3.366;2023-05-27T05:53:28;14.00;99.90
20481;DHT22;10399;50.754;3.366;2023-05-27T05:55:55;14.20;99.90
20481;DHT22;10399;50.754;3.366;2023-05-27T05:58:22;14.30;99.90
20481;DHT22;10399;50.754;3.366;2023-05-27T06:00:49;14.00;99.90
20481;DHT22;10399;50.754;3.366;2023-05-27T06:03:17;14.10;99.90
20481;DHT22;10399;50.754;3.366;2023-05-27T06:05:44;14.20;99.90
20481;DHT22;10399;50.754;3.366;2023-05-27T06:08:12;14.30;99.90
20481;DHT22;10399;50.754;3.366;2023-05-27T06:10:39;14.30;99.90
20481;DHT22;10399;50.754;3.366;2023-05-27T06:13:06;14.40;99.90
20481;DHT22;10399;50.754;3.366;2023-05-27T06:15:38;14.50;99.90
20481;DHT22;10399;50.754;3.366;2023-05-27T06:18:05;14.50;99.90
20481;DHT22;10399;50.754;3.366;2023-05-27T06:20:33;14.50;99.90
20481;DHT22;10399;50.754;3.366;2023-05-27T06:23:00;14.70;99.90
20481;DHT22;10399;50.754;3.366;2023-05-27T06:25:27;14.50;99.90
20481;DHT22;10399;50.754;3.366;2023-05-27T06:27:54;14.70;99.90
20481;DHT22;10399;50.754;3.366;2023-05-27T06:30:22;14.70;99.90
20481;DHT22;10399;50.754;3.366;2023-05-27T06:32:49;14.50;99.90
20481;DHT22;10399;50.754;3.366;2023-05-27T06:35:16;14.70;99.90
20481;DHT22;10399;50.754;3.366;2023-05-27T06:37:43;14.80;99.90
20481;DHT22;10399;50.754;3.366;2023-05-27T06:40:13;14.70;99.90
20481;DHT22;10399;50.754;3.366;2023-05-27T06:42:42;15.00;99.90
20481;DHT22;10399;50.754;3.366;2023-05-27T06:45:10;15.10;99.90
20481;DHT22;10399;50.754;3.366;2023-05-27T06:47:38;15.20;99.90
20481;DHT22;10399;50.754;3.366;2023-05-27T06:50:06;15.40;99.90
20481;DHT22;10399;50.754;3.366;2023-05-27T06:52:33;15.60;99.90
20481;DHT22;10399;50.754;3.366;2023-05-27T06:55:01;15.70;99.90
20481;DHT22;10399;50.754;3.366;2023-05-27T06:57:28;15.60;99.90
20481;DHT22;10399;50.754;3.366;2023-05-27T06:59:55;15.60;99.90
20481;DHT22;10399;50.754;3.366;2023-05-27T07:02:23;15.50;99.90
20481;DHT22;10399;50.754;3.366;2023-05-27T07:04:52;15.70;99.90
20481;DHT22;10399;50.754;3.366;2023-05-27T07:07:25;15.80;99.90
20481;DHT22;10399;50.754;3.366;2023-05-27T07:09:53;16.10;99.90
20481;DHT22;10399;50.754;3.366;2023-05-27T07:12:21;16.30;99.90
20481;DHT22;10399;50.754;3.366;2023-05-27T07:14:50;16.30;99.90
20481;DHT22;10399;50.754;3.366;2023-05-27T07:17:17;16.30;99.90
20481;DHT22;10399;50.754;3.366;2023-05-27T07:19:44;16.50;99.90
20481;DHT22;10399;50.754;3.366;2023-05-27T07:22:11;16.40;99.90
20481;DHT22;10399;50.754;3.366;2023-05-27T07:24:39;16.50;99.90
20481;DHT22;10399;50.754;3.366;2023-05-27T07:27:06;16.50;99.90
20481;DHT22;10399;50.754;3.366;2023-05-27T07:29:34;16.50;99.90
20481;DHT22;10399;50.754;3.366;2023-05-27T07:32:02;16.60;99.90
20481;DHT22;10399;50.754;3.366;2023-05-27T07:34:30;16.70;99.90
20481;DHT22;10399;50.754;3.366;2023-05-27T07:36:57;16.80;99.90
20481;DHT22;10399;50.754;3.366;2023-05-27T07:39:25;17.00;99.90
20481;DHT22;10399;50.754;3.366;2023-05-27T07:41:52;17.10;99.90
20481;DHT22;10399;50.754;3.366;2023-05-27T07:44:19;17.20;99.90
20481;DHT22;10399;50.754;3.366;2023-05-27T07:46:46;17.40;99.90
20481;DHT22;10399;50.754;3.366;2023-05-27T07:49:14;17.40;99.90
20481;DHT22;10399;50.754;3.366;2023-05-27T07:51:42;17.50;99.90
20481;DHT22;10399;50.754;3.366;2023-05-27T07:54:09;17.60;99.90
20481;DHT22;10399;50.754;3.366;2023-05-27T07:56:36;17.60;99.90
20481;DHT22;10399;50.754;3.366;2023-05-27T07:59:03;17.60;99.90
20481;DHT22;10399;50.754;3.366;2023-05-27T08:01:30;17.60;99.90
20481;DHT22;10399;50.754;3.366;2023-05-27T08:03:59;17.50;99.90
20481;DHT22;10399;50.754;3.366;2023-05-27T08:06:42;17.60;99.90
20481;DHT22;10399;50.754;3.366;2023-05-27T08:09:09;17.60;99.90
20481;DHT22;10399;50.754;3.366;2023-05-27T08:11:37;17.80;99.90
20481;DHT22;10399;50.754;3.366;2023-05-27T08:14:04;17.80;99.90
20481;DHT22;10399;50.754;3.366;2023-05-27T08:16:31;18.10;99.90
20481;DHT22;10399;50.754;3.366;2023-05-27T08:18:58;18.20;99.90
20481;DHT22;10399;50.754;3.366;2023-05-27T08:21:25;18.40;99.90
20481;DHT22;10399;50.754;3.366;2023-05-27T08:23:52;18.50;99.90
20481;DHT22;10399;50.754;3.366;2023-05-27T08:26:19;18.50;99.90
20481;DHT22;10399;50.754;3.366;2023-05-27T08:28:47;18.70;99.90
20481;DHT22;10399;50.754;3.366;2023-05-27T08:31:16;18.80;99.90
20481;DHT22;10399;50.754;3.366;2023-05-27T08:33:43;18.80;99.90
20481;DHT22;10399;50.754;3.366;2023-05-27T08:36:10;19.20;99.90
20481;DHT22;10399;50.754;3.366;2023-05-27T08:38:38;19.50;99.90
20481;DHT22;10399;50.754;3.366;2023-05-27T08:41:06;19.60;99.90
20481;DHT22;10399;50.754;3.366;2023-05-27T08:43:35;19.90;99.90
20481;DHT22;10399;50.754;3.366;2023-05-27T08:46:03;20.30;99.90
20481;DHT22;10399;50.754;3.366;2023-05-27T08:48:31;20.40;99.90
20481;DHT22;10399;50.754;3.366;2023-05-27T08:50:58;20.30;99.90
20481;DHT22;10399;50.754;3.366;2023-05-27T08:53:26;20.40;99.90
20481;DHT22;10399;50.754;3.366;2023-05-27T08:55:54;20.70;99.90
20481;DHT22;10399;50.754;3.366;2023-05-27T08:58:24;20.80;99.90
20481;DHT22;10399;50.754;3.366;2023-05-27T09:00:54;20.90;99.90
20481;DHT22;10399;50.754;3.366;2023-05-27T09:03:21;21.00;99.90
20481;DHT22;10399;50.754;3.366;2023-05-27T09:05:50;21.40;99.90
20481;DHT22;10399;50.754;3.366;2023-05-27T09:08:17;21.80;99.90
20481;DHT22;10399;50.754;3.366;2023-05-27T09:10:44;21.60;99.90
20481;DHT22;10399;50.754;3.366;2023-05-27T09:13:11;21.70;99.90
20481;DHT22;10399;50.754;3.366;2023-05-27T09:15:40;21.70;99.90
20481;DHT22;10399;50.754;3.366;2023-05-27T09:18:08;21.90;99.90
20481;DHT22;10399;50.754;3.366;2023-05-27T09:20:35;22.20;99.90
20481;DHT22;10399;50.754;3.366;2023-05-27T09:23:05;22.20;99.90
20481;DHT22;10399;50.754;3.366;2023-05-27T09:25:36;22.30;99.90
20481;DHT22;10399;50.754;3.366;2023-05-27T09:28:05;22.70;99.90
20481;DHT22;10399;50.754;3.366;2023-05-27T09:30:35;22.70;99.90
20481;DHT22;10399;50.754;3.366;2023-05-27T09:33:02;22.80;99.90
20481;DHT22;10399;50.754;3.366;2023-05-27T09:35:30;22.90;99.90
20481;DHT22;10399;50.754;3.366;2023-05-27T09:38:07;23.10;99.90
20481;DHT22;10399;50.754;3.366;2023-05-27T09:40:36;23.40;99.90
20481;DHT22;10399;50.754;3.366;2023-05-27T09:43:05;23.70;99.90
20481;DHT22;10399;50.754;3.366;2023-05-27T09:45:33;23.80;99.90
20481;DHT22;10399;50.754;3.366;2023-05-27T09:48:01;23.60;99.90
20481;DHT22;10399;50.754;3.366;2023-05-27T09:50:30;23.70;99.90
20481;DHT22;10399;50.754;3.366;2023-05-27T09:52:58;23.80;99.90
20481;DHT22;10399;50.754;3.366;2023-05-27T09:55:37;24.00;99.90
20481;DHT22;10399;50.754;3.366;2023-05-27T09:58:05;24.20;99.90
20481;DHT22;10399;50.754;3.366;2023-05-27T10:00:34;24.40;99.90
20481;DHT22;10399;50.754;3.366;2023-05-27T10:03:02;24.60;99.90
20481;DHT22;10399;50.754;3.366;2023-05-27T10:05:30;24.60;99.90
20481;DHT22;10399;50.754;3.366;2023-05-27T10:07:58;24.80;99.90
20481;DHT22;10399;50.754;3.366;2023-05-27T10:10:45;25.20;99.90
20481;DHT22;10399;50.754;3.366;2023-05-27T10:13:15;25.30;99.90
20481;DHT22;10399;50.754;3.366;2023-05-27T10:15:48;25.50;99.90
20481;DHT22;10399;50.754;3.366;2023-05-27T10:18:26;25.50;99.90
20481;DHT22;10399;50.754;3.366;2023-05-27T10:20:56;25.40;99.90
20481;DHT22;10399;50.754;3.366;2023-05-27T10:23:30;25.70;99.90
20481;DHT22;10399;50.754;3.366;2023-05-27T10:26:09;25.70;99.90
20481;DHT22;10399;50.754;3.366;2023-05-27T10:28:40;25.80;99.90
20481;DHT22;10399;50.754;3.366;2023-05-27T10:31:16;26.00;99.90
20481;DHT22;10399;50.754;3.366;2023-05-27T10:33:47;25.80;99.90
20481;DHT22;10399;50.754;3.366;2023-05-27T10:36:27;26.30;99.90
20481;DHT22;10399;50.754;3.366;2023-05-27T10:39:05;26.70;99.90
20481;DHT22;10399;50.754;3.366;2023-05-27T10:41:49;26.70;99.90
20481;DHT22;10399;50.754;3.366;2023-05-27T10:49:35;27.20;99.90
20481;DHT22;10399;50.754;3.366;2023-05-27T10:52:09;27.20;99.90
20481;DHT22;10399;50.754;3.366;2023-05-27T10:54:40;27.50;99.90
20481;DHT22;10399;50.754;3.366;2023-05-27T10:57:08;27.70;99.90
20481;DHT22;10399;50.754;3.366;2023-05-27T10:59:48;28.10;99.90
20481;DHT22;10399;50.754;3.366;2023-05-27T11:02:41;28.40;99.90
20481;DHT22;10399;50.754;3.366;2023-05-27T11:05:13;28.30;99.90
20481;DHT22;10399;50.754;3.366;2023-05-27T11:07:40;28.30;99.90
20481;DHT22;10399;50.754;3.366;2023-05-27T11:10:08;28.30;99.90
20481;DHT22;10399;50.754;3.366;2023-05-27T11:12:36;28.80;98.70
20481;DHT22;10399;50.754;3.366;2023-05-27T11:15:04;29.00;99.80
20481;DHT22;10399;50.754;3.366;2023-05-27T11:17:32;28.70;98.40
20481;DHT22;10399;50.754;3.366;2023-05-27T11:20:01;28.90;98.40
20481;DHT22;10399;50.754;3.366;2023-05-27T11:22:32;29.00;97.70
20481;DHT22;10399;50.754;3.366;2023-05-27T11:25:02;29.10;96.80
20481;DHT22;10399;50.754;3.366;2023-05-27T11:27:48;29.10;97.30
20481;DHT22;10399;50.754;3.366;2023-05-27T11:30:16;28.70;97.20
20481;DHT22;10399;50.754;3.366;2023-05-27T11:32:44;28.70;96.80
20481;DHT22;10399;50.754;3.366;2023-05-27T11:35:15;29.30;97.20
20481;DHT22;10399;50.754;3.366;2023-05-27T11:37:50;29.30;97.10
20481;DHT22;10399;50.754;3.366;2023-05-27T11:40:20;29.50;97.00
20481;DHT22;10399;50.754;3.366;2023-05-27T11:42:48;29.10;95.90
20481;DHT22;10399;50.754;3.366;2023-05-27T11:45:17;29.20;95.60
20481;DHT22;10399;50.754;3.366;2023-05-27T11:47:45;29.50;96.40
20481;DHT22;10399;50.754;3.366;2023-05-27T11:50:22;29.40;95.50
20481;DHT22;10399;50.754;3.366;2023-05-27T11:53:02;29.60;96.00
20481;DHT22;10399;50.754;3.366;2023-05-27T11:55:31;29.90;95.20
20481;DHT22;10399;50.754;3.366;2023-05-27T11:57:58;30.00;93.60
20481;DHT22;10399;50.754;3.366;2023-05-27T12:00:25;30.20;94.00
20481;DHT22;10399;50.754;3.366;2023-05-27T12:02:54;30.00;92.80
20481;DHT22;10399;50.754;3.366;2023-05-27T12:05:22;30.20;93.40
20481;DHT22;10399;50.754;3.366;2023-05-27T12:08:00;30.30;94.20
20481;DHT22;10399;50.754;3.366;2023-05-27T12:10:28;30.40;92.60
20481;DHT22;10399;50.754;3.366;2023-05-27T12:13:05;30.40;93.70
20481;DHT22;10399;50.754;3.366;2023-05-27T12:15:33;30.90;92.20
20481;DHT22;10399;50.754;3.366;2023-05-27T12:18:00;30.80;91.70
20481;DHT22;10399;50.754;3.366;2023-05-27T12:20:27;31.10;92.00
20481;DHT22;10399;50.754;3.366;2023-05-27T12:22:56;31.30;91.00
20481;DHT22;10399;50.754;3.366;2023-05-27T12:25:23;31.10;90.30
20481;DHT22;10399;50.754;3.366;2023-05-27T12:27:50;31.10;91.00
20481;DHT22;10399;50.754;3.366;2023-05-27T12:30:17;30.80;89.80
20481;DHT22;10399;50.754;3.366;2023-05-27T12:32:45;31.10;89.90
20481;DHT22;10399;50.754;3.366;2023-05-27T12:35:12;31.30;89.80
20481;DHT22;10399;50.754;3.366;2023-05-27T12:37:40;30.90;88.30
20481;DHT22;10399;50.754;3.366;2023-05-27T12:40:08;30.70;90.20
20481;DHT22;10399;50.754;3.366;2023-05-27T12:42:40;31.10;89.80
20481;DHT22;10399;50.754;3.366;2023-05-27T12:45:11;31.20;89.50
20481;DHT22;10399;50.754;3.366;2023-05-27T12:47:38;31.10;89.00
20481;DHT22;10399;50.754;3.366;2023-05-27T12:50:06;31.10;88.70
20481;DHT22;10399;50.754;3.366;2023-05-27T12:52:34;31.00;85.50
20481;DHT22;10399;50.754;3.366;2023-05-27T12:55:02;31.20;85.00
20481;DHT22;10399;50.754;3.366;2023-05-27T12:57:30;31.50;85.80
20481;DHT22;10399;50.754;3.366;2023-05-27T12:59:58;31.50;84.00
20481;DHT22;10399;50.754;3.366;2023-05-27T13:02:25;31.20;85.00
20481;DHT22;10399;50.754;3.366;2023-05-27T13:04:54;31.60;85.60
20481;DHT22;10399;50.754;3.366;2023-05-27T13:07:21;31.30;83.10
20481;DHT22;10399;50.754;3.366;2023-05-27T13:09:48;31.50;84.30
20481;DHT22;10399;50.754;3.366;2023-05-27T13:12:15;31.40;86.30
20481;DHT22;10399;50.754;3.366;2023-05-27T13:14:42;31.50;83.10
20481;DHT22;10399;50.754;3.366;2023-05-27T13:17:10;31.90;82.00
20481;DHT22;10399;50.754;3.366;2023-05-27T13:19:37;32.20;81.60
20481;DHT22;10399;50.754;3.366;2023-05-27T13:22:05;31.90;78.50
20481;DHT22;10399;50.754;3.366;2023-05-27T13:24:32;32.30;79.90
20481;DHT22;10399;50.754;3.366;2023-05-27T13:26:59;32.50;80.00
20481;DHT22;10399;50.754;3.366;2023-05-27T13:29:27;32.30;79.60
20481;DHT22;10399;50.754;3.366;2023-05-27T13:31:54;32.10;78.70
20481;DHT22;10399;50.754;3.366;2023-05-27T13:34:22;32.20;78.50
20481;DHT22;10399;50.754;3.366;2023-05-27T13:36:50;32.60;78.00
20481;DHT22;10399;50.754;3.366;2023-05-27T13:39:17;33.00;78.70
20481;DHT22;10399;50.754;3.366;2023-05-27T13:41:44;31.70;70.90
20481;DHT22;10399;50.754;3.366;2023-05-27T13:44:11;31.80;76.30
20481;DHT22;10399;50.754;3.366;2023-05-27T13:46:39;31.90;74.30
20481;DHT22;10399;50.754;3.366;2023-05-27T13:49:07;31.80;72.10
20481;DHT22;10399;50.754;3.366;2023-05-27T13:51:42;31.80;74.00
20481;DHT22;10399;50.754;3.366;2023-05-27T13:54:10;32.20;75.90
20481;DHT22;10399;50.754;3.366;2023-05-27T13:56:38;32.00;73.40
20481;DHT22;10399;50.754;3.366;2023-05-27T13:59:05;32.50;72.30
20481;DHT22;10399;50.754;3.366;2023-05-27T14:01:32;32.60;73.50
20481;DHT22;10399;50.754;3.366;2023-05-27T14:04:00;33.00;72.60
20481;DHT22;10399;50.754;3.366;2023-05-27T14:06:27;33.40;71.50
20481;DHT22;10399;50.754;3.366;2023-05-27T14:08:54;33.10;73.30
20481;DHT22;10399;50.754;3.366;2023-05-27T14:11:21;32.90;72.60
20481;DHT22;10399;50.754;3.366;2023-05-27T14:13:50;33.00;74.10
20481;DHT22;10399;50.754;3.366;2023-05-27T14:16:17;33.10;72.80
20481;DHT22;10399;50.754;3.366;2023-05-27T14:18:48;33.10;71.70
20481;DHT22;10399;50.754;3.366;2023-05-27T14:21:16;33.20;71.70
20481;DHT22;10399;50.754;3.366;2023-05-27T14:23:44;32.80;72.30
20481;DHT22;10399;50.754;3.366;2023-05-27T14:26:11;33.20;73.80
20481;DHT22;10399;50.754;3.366;2023-05-27T14:28:39;33.00;71.90
20481;DHT22;10399;50.754;3.366;2023-05-27T14:31:07;33.10;72.40
20481;DHT22;10399;50.754;3.366;2023-05-27T14:33:34;33.00;72.10
20481;DHT22;10399;50.754;3.366;2023-05-27T14:36:01;32.60;70.60
20481;DHT22;10399;50.754;3.366;2023-05-27T14:38:29;32.70;71.50
20481;DHT22;10399;50.754;3.366;2023-05-27T14:40:56;32.50;70.60
20481;DHT22;10399;50.754;3.366;2023-05-27T14:43:23;32.30;69.00
20481;DHT22;10399;50.754;3.366;2023-05-27T14:45:50;32.40;70.50
20481;DHT22;10399;50.754;3.366;2023-05-27T14:48:19;32.40;70.90
20481;DHT22;10399;50.754;3.366;2023-05-27T14:50:46;33.00;71.30
20481;DHT22;10399;50.754;3.366;2023-05-27T14:53:13;32.60;71.40
20481;DHT22;10399;50.754;3.366;2023-05-27T14:55:40;32.80;69.30
20481;DHT22;10399;50.754;3.366;2023-05-27T14:58:07;32.80;69.80
20481;DHT22;10399;50.754;3.366;2023-05-27T15:00:35;32.80;70.80
20481;DHT22;10399;50.754;3.366;2023-05-27T15:03:03;32.50;67.70
20481;DHT22;10399;50.754;3.366;2023-05-27T15:05:32;32.60;70.40
20481;DHT22;10399;50.754;3.366;2023-05-27T15:07:59;32.80;70.00
20481;DHT22;10399;50.754;3.366;2023-05-27T15:10:27;32.60;68.70
20481;DHT22;10399;50.754;3.366;2023-05-27T15:12:54;32.50;70.70
20481;DHT22;10399;50.754;3.366;2023-05-27T15:15:21;32.90;71.30
20481;DHT22;10399;50.754;3.366;2023-05-27T15:17:48;32.40;68.70
20481;DHT22;10399;50.754;3.366;2023-05-27T15:20:17;32.70;68.90
20481;DHT22;10399;50.754;3.366;2023-05-27T15:22:45;32.50;67.80
20481;DHT22;10399;50.754;3.366;2023-05-27T15:25:13;32.20;66.00
20481;DHT22;10399;50.754;3.366;2023-05-27T15:27:41;32.00;67.10
20481;DHT22;10399;50.754;3.366;2023-05-27T15:30:08;32.10;67.90
20481;DHT22;10399;50.754;3.366;2023-05-27T15:32:35;32.00;66.50
20481;DHT22;10399;50.754;3.366;2023-05-27T15:35:03;31.60;70.70
20481;DHT22;10399;50.754;3.366;2023-05-27T15:37:31;31.80;69.60
20481;DHT22;10399;50.754;3.366;2023-05-27T15:39:59;31.70;69.80
20481;DHT22;10399;50.754;3.366;2023-05-27T15:42:27;31.70;69.20
20481;DHT22;10399;50.754;3.366;2023-05-27T15:44:54;31.40;69.90
20481;DHT22;10399;50.754;3.366;2023-05-27T15:47:22;32.00;71.00